sensor_id;sensor_type;location;lat;lon;timestamp;temperature;humidity
50544;DHT22;41176;44.032;20.900;2024-03-23T00:53:18;8.70;81.30
50544;DHT22;41176;44.032;20.900;2024-03-23T00:55:43;8.60;81.70
50544;DHT22;41176;44.032;20.900;2024-03-23T00:58:09;8.50;82.00
50544;DHT22;41176;44.032;20.900;2024-03-23T01:00:35;8.50;82.20
50544;DHT22;41176;44.032;20.900;2024-03-23T01:03:01;8.50;82.30
50544;DHT22;41176;44.032;20.900;2024-03-23T01:05:27;8.50;82.50
50544;DHT22;41176;44.032;20.900;2024-03-23T01:07:52;8.50;82.30
50544;DHT22;41176;44.032;20.900;2024-03-23T01:10:18;8.50;82.50
50544;DHT22;41176;44.032;20.900;2024-03-23T01:12:44;8.50;82.50
50544;DHT22;41176;44.032;20.900;2024-03-23T01:15:10;8.50;82.50
50544;DHT22;41176;44.032;20.900;2024-03-23T01:17:35;8.50;82.50
50544;DHT22;41176;44.032;20.900;2024-03-23T01:20:01;8.50;82.60
50544;DHT22;41176;44.032;20.900;2024-03-23T01:22:27;8.50;82.50
50544;DHT22;41176;44.032;20.900;2024-03-23T01:24:53;8.60;82.30
50544;DHT22;41176;44.032;20.900;2024-03-23T01:27:18;8.60;82.90
50544;DHT22;41176;44.032;20.900;2024-03-23T01:29:44;8.70;82.10
50544;DHT22;41176;44.032;20.900;2024-03-23T01:32:10;8.70;82.20
50544;DHT22;41176;44.032;20.900;2024-03-23T01:34:35;8.60;82.40
50544;DHT22;41176;44.032;20.900;2024-03-23T01:37:01;8.60;82.20
50544;DHT22;41176;44.032;20.900;2024-03-23T01:39:27;8.60;82.30
50544;DHT22;41176;44.032;20.900;2024-03-23T01:41:53;8.60;82.40
50544;DHT22;41176;44.032;20.900;2024-03-23T01:44:18;8.60;82.40
50544;DHT22;41176;44.032;20.900;2024-03-23T01:46:44;8.60;82.40
50544;DHT22;41176;44.032;20.900;2024-03-23T01:49:10;8.60;82.30
50544;DHT22;41176;44.032;20.900;2024-03-23T01:51:37;8.70;82.00
50544;DHT22;41176;44.032;20.900;2024-03-23T01:54:03;8.70;81.70
50544;DHT22;41176;44.032;20.900;2024-03-23T01:56:31;8.70;81.60
50544;DHT22;41176;44.032;20.900;2024-03-23T01:58:59;8.80;81.60
50544;DHT22;41176;44.032;20.900;2024-03-23T02:01:24;8.90;81.00
50544;DHT22;41176;44.032;20.900;2024-03-23T02:03:50;8.90;80.80
50544;DHT22;41176;44.032;20.900;2024-03-23T02:06:16;9.00;80.60
50544;DHT22;41176;44.032;20.900;2024-03-23T02:08:43;9.00;80.50
50544;DHT22;41176;44.032;20.900;2024-03-23T02:11:09;9.00;80.30
50544;DHT22;41176;44.032;20.900;2024-03-23T02:13:35;9.00;80.30
50544;DHT22;41176;44.032;20.900;2024-03-23T02:16:01;9.00;80.10
50544;DHT22;41176;44.032;20.900;2024-03-23T02:18:27;9.00;80.30
50544;DHT22;41176;44.032;20.900;2024-03-23T02:20:52;9.10;79.90
50544;DHT22;41176;44.032;20.900;2024-03-23T02:23:18;9.10;79.90
50544;DHT22;41176;44.032;20.900;2024-03-23T02:25:44;9.10;79.60
50544;DHT22;41176;44.032;20.900;2024-03-23T02:28:10;9.10;79.40
50544;DHT22;41176;44.032;20.900;2024-03-23T02:30:36;9.20;79.20
50544;DHT22;41176;44.032;20.900;2024-03-23T02:33:03;9.20;79.00
50544;DHT22;41176;44.032;20.900;2024-03-23T02:35:29;9.20;78.80
50544;DHT22;41176;44.032;20.900;2024-03-23T02:37:55;9.30;78.80
50544;DHT22;41176;44.032;20.900;2024-03-23T02:40:23;9.20;78.90
50544;DHT22;41176;44.032;20.900;2024-03-23T02:42:49;9.30;79.10
50544;DHT22;41176;44.032;20.900;2024-03-23T02:45:15;9.20;79.00
50544;DHT22;41176;44.032;20.900;2024-03-23T02:47:41;9.10;79.20
50544;DHT22;41176;44.032;20.900;2024-03-23T02:50:07;9.10;79.50
50544;DHT22;41176;44.032;20.900;2024-03-23T02:52:34;9.00;80.20
50544;DHT22;41176;44.032;20.900;2024-03-23T02:55:00;8.90;80.70
50544;DHT22;41176;44.032;20.900;2024-03-23T02:57:27;8.80;80.90
50544;DHT22;41176;44.032;20.900;2024-03-23T02:59:53;8.80;80.90
50544;DHT22;41176;44.032;20.900;2024-03-23T03:02:19;8.80;80.90
50544;DHT22;41176;44.032;20.900;2024-03-23T03:04:45;8.90;80.80
50544;DHT22;41176;44.032;20.900;2024-03-23T03:07:11;8.90;80.70
50544;DHT22;41176;44.032;20.900;2024-03-23T03:09:37;8.90;80.80
50544;DHT22;41176;44.032;20.900;2024-03-23T03:12:05;8.90;80.80
50544;DHT22;41176;44.032;20.900;2024-03-23T03:14:31;8.90;81.10
50544;DHT22;41176;44.032;20.900;2024-03-23T03:16:56;8.80;81.30
50544;DHT22;41176;44.032;20.900;2024-03-23T03:19:22;8.80;81.40
50544;DHT22;41176;44.032;20.900;2024-03-23T03:21:48;8.80;81.30
50544;DHT22;41176;44.032;20.900;2024-03-23T03:24:14;8.80;81.60
50544;DHT22;41176;44.032;20.900;2024-03-23T03:26:40;8.70;81.90
50544;DHT22;41176;44.032;20.900;2024-03-23T03:29:06;8.80;82.00
50544;DHT22;41176;44.032;20.900;2024-03-23T03:31:32;8.80;81.70
50544;DHT22;41176;44.032;20.900;2024-03-23T03:33:57;8.80;81.80
50544;DHT22;41176;44.032;20.900;2024-03-23T03:36:23;8.80;81.60
50544;DHT22;41176;44.032;20.900;2024-03-23T03:38:49;8.80;81.80
50544;DHT22;41176;44.032;20.900;2024-03-23T03:41:15;8.70;81.80
50544;DHT22;41176;44.032;20.900;2024-03-23T03:43:41;8.70;81.50
50544;DHT22;41176;44.032;20.900;2024-03-23T03:46:06;8.80;81.50
50544;DHT22;41176;44.032;20.900;2024-03-23T03:48:33;8.80;81.40
50544;DHT22;41176;44.032;20.900;2024-03-23T03:51:00;8.80;81.40
50544;DHT22;41176;44.032;20.900;2024-03-23T03:53:25;8.70;81.40
50544;DHT22;41176;44.032;20.900;2024-03-23T03:55:51;8.70;81.90
50544;DHT22;41176;44.032;20.900;2024-03-23T03:58:17;8.70;81.90
50544;DHT22;41176;44.032;20.900;2024-03-23T04:00:43;8.70;81.90
50544;DHT22;41176;44.032;20.900;2024-03-23T04:03:09;8.60;82.30
50544;DHT22;41176;44.032;20.900;2024-03-23T04:05:35;8.60;82.20
50544;DHT22;41176;44.032;20.900;2024-03-23T04:08:00;8.50;82.70
50544;DHT22;41176;44.032;20.900;2024-03-23T04:10:26;8.50;82.90
50544;DHT22;41176;44.032;20.900;2024-03-23T04:12:52;8.50;83.00
50544;DHT22;41176;44.032;20.900;2024-03-23T04:15:19;8.50;82.80
50544;DHT22;41176;44.032;20.900;2024-03-23T04:17:45;8.60;82.90
50544;DHT22;41176;44.032;20.900;2024-03-23T04:20:11;8.50;82.90
50544;DHT22;41176;44.032;20.900;2024-03-23T04:22:40;8.50;82.90
50544;DHT22;41176;44.032;20.900;2024-03-23T04:25:06;8.60;82.80
50544;DHT22;41176;44.032;20.900;2024-03-23T04:27:38;8.70;82.30
50544;DHT22;41176;44.032;20.900;2024-03-23T04:30:04;8.70;82.20
50544;DHT22;41176;44.032;20.900;2024-03-23T04:32:36;8.70;82.40
50544;DHT22;41176;44.032;20.900;2024-03-23T04:35:01;8.70;82.40
50544;DHT22;41176;44.032;20.900;2024-03-23T04:37:28;8.70;82.60
50544;DHT22;41176;44.032;20.900;2024-03-23T04:39:54;8.70;82.40
50544;DHT22;41176;44.032;20.900;2024-03-23T04:42:20;8.80;82.20
50544;DHT22;41176;44.032;20.900;2024-03-23T04:44:45;8.90;81.90
50544;DHT22;41176;44.032;20.900;2024-03-23T04:47:11;8.90;81.90
50544;DHT22;41176;44.032;20.900;2024-03-23T04:49:37;8.80;82.00
50544;DHT22;41176;44.032;20.900;2024-03-23T04:52:06;8.90;82.00
50544;DHT22;41176;44.032;20.900;2024-03-23T04:54:31;8.80;81.90
50544;DHT22;41176;44.032;20.900;2024-03-23T04:57:00;8.80;82.10
50544;DHT22;41176;44.032;20.900;2024-03-23T04:59:25;8.80;82.30
50544;DHT22;41176;44.032;20.900;2024-03-23T05:01:51;8.90;82.00
50544;DHT22;41176;44.032;20.900;2024-03-23T05:04:17;8.90;81.90
50544;DHT22;41176;44.032;20.900;2024-03-23T05:06:43;8.90;82.00
50544;DHT22;41176;44.032;20.900;2024-03-23T05:09:08;9.00;81.60
50544;DHT22;41176;44.032;20.900;2024-03-23T05:11:40;9.00;81.20
50544;DHT22;41176;44.032;20.900;2024-03-23T05:14:07;9.10;81.10
50544;DHT22;41176;44.032;20.900;2024-03-23T05:16:33;9.10;80.90
50544;DHT22;41176;44.032;20.900;2024-03-23T05:18:59;9.20;80.80
50544;DHT22;41176;44.032;20.900;2024-03-23T05:21:24;9.20;80.60
50544;DHT22;41176;44.032;20.900;2024-03-23T05:23:50;9.20;80.70
50544;DHT22;41176;44.032;20.900;2024-03-23T05:26:17;9.30;80.30
50544;DHT22;41176;44.032;20.900;2024-03-23T05:28:42;9.30;80.30
50544;DHT22;41176;44.032;20.900;2024-03-23T05:31:09;9.40;80.00
50544;DHT22;41176;44.032;20.900;2024-03-23T05:33:36;9.50;79.50
50544;DHT22;41176;44.032;20.900;2024-03-23T05:36:04;9.60;79.40
50544;DHT22;41176;44.032;20.900;2024-03-23T05:38:30;9.70;78.90
50544;DHT22;41176;44.032;20.900;2024-03-23T05:40:59;9.70;78.70
50544;DHT22;41176;44.032;20.900;2024-03-23T05:43:26;9.80;78.50
50544;DHT22;41176;44.032;20.900;2024-03-23T05:45:56;9.80;78.90
50544;DHT22;41176;44.032;20.900;2024-03-23T05:48:28;9.90;78.80
50544;DHT22;41176;44.032;20.900;2024-03-23T05:50:55;10.00;78.80
50544;DHT22;41176;44.032;20.900;2024-03-23T05:53:21;10.00;78.90
50544;DHT22;41176;44.032;20.900;2024-03-23T05:55:47;10.10;78.30
50544;DHT22;41176;44.032;20.900;2024-03-23T05:58:15;10.20;78.50
50544;DHT22;41176;44.032;20.900;2024-03-23T06:00:41;10.30;78.20
50544;DHT22;41176;44.032;20.900;2024-03-23T06:03:08;10.30;78.00
50544;DHT22;41176;44.032;20.900;2024-03-23T06:05:34;10.40;77.60
50544;DHT22;41176;44.032;20.900;2024-03-23T06:07:59;10.50;77.70
50544;DHT22;41176;44.032;20.900;2024-03-23T06:10:25;10.60;77.00
50544;DHT22;41176;44.032;20.900;2024-03-23T06:12:51;10.70;77.00
50544;DHT22;41176;44.032;20.900;2024-03-23T06:15:21;10.80;76.40
50544;DHT22;41176;44.032;20.900;2024-03-23T06:17:48;10.90;75.70
50544;DHT22;41176;44.032;20.900;2024-03-23T06:20:14;10.90;75.70
50544;DHT22;41176;44.032;20.900;2024-03-23T06:22:40;10.90;76.10
50544;DHT22;41176;44.032;20.900;2024-03-23T06:25:06;11.00;75.30
50544;DHT22;41176;44.032;20.900;2024-03-23T06:27:32;11.20;75.40
50544;DHT22;41176;44.032;20.900;2024-03-23T06:29:59;11.30;74.30
50544;DHT22;41176;44.032;20.900;2024-03-23T06:32:24;11.30;74.30
50544;DHT22;41176;44.032;20.900;2024-03-23T06:34:50;11.30;74.90
50544;DHT22;41176;44.032;20.900;2024-03-23T06:37:16;11.50;74.90
50544;DHT22;41176;44.032;20.900;2024-03-23T06:39:42;11.60;74.70
50544;DHT22;41176;44.032;20.900;2024-03-23T06:42:07;11.70;74.10
50544;DHT22;41176;44.032;20.900;2024-03-23T06:44:36;11.80;73.80
50544;DHT22;41176;44.032;20.900;2024-03-23T06:47:01;11.80;74.10
50544;DHT22;41176;44.032;20.900;2024-03-23T06:49:28;11.90;73.90
50544;DHT22;41176;44.032;20.900;2024-03-23T06:51:54;11.90;74.00
50544;DHT22;41176;44.032;20.900;2024-03-23T06:54:20;12.00;73.30
50544;DHT22;41176;44.032;20.900;2024-03-23T06:56:46;12.20;73.70
50544;DHT22;41176;44.032;20.900;2024-03-23T06:59:12;12.30;72.70
50544;DHT22;41176;44.032;20.900;2024-03-23T07:01:37;12.30;72.90
50544;DHT22;41176;44.032;20.900;2024-03-23T07:04:04;12.40;71.40
50544;DHT22;41176;44.032;20.900;2024-03-23T07:06:32;12.60;72.20
50544;DHT22;41176;44.032;20.900;2024-03-23T07:08:58;12.70;70.70
50544;DHT22;41176;44.032;20.900;2024-03-23T07:11:24;12.90;70.80
50544;DHT22;41176;44.032;20.900;2024-03-23T07:13:51;13.00;70.00
50544;DHT22;41176;44.032;20.900;2024-03-23T07:16:23;13.00;70.10
50544;DHT22;41176;44.032;20.900;2024-03-23T07:18:50;13.00;69.20
50544;DHT22;41176;44.032;20.900;2024-03-23T07:21:16;13.20;69.90
50544;DHT22;41176;44.032;20.900;2024-03-23T07:23:42;13.40;68.60
50544;DHT22;41176;44.032;20.900;2024-03-23T07:26:10;13.40;68.50
50544;DHT22;41176;44.032;20.900;2024-03-23T07:28:37;13.60;67.80
50544;DHT22;41176;44.032;20.900;2024-03-23T07:33:30;13.90;68.00
50544;DHT22;41176;44.032;20.900;2024-03-23T07:35:56;14.20;66.90
50544;DHT22;41176;44.032;20.900;2024-03-23T07:38:22;14.40;66.40
50544;DHT22;41176;44.032;20.900;2024-03-23T07:40:47;14.60;66.10
50544;DHT22;41176;44.032;20.900;2024-03-23T07:43:19;14.80;65.00
50544;DHT22;41176;44.032;20.900;2024-03-23T07:45:52;14.80;64.30
50544;DHT22;41176;44.032;20.900;2024-03-23T07:48:18;14.90;64.40
50544;DHT22;41176;44.032;20.900;2024-03-23T07:50:44;15.00;64.20
50544;DHT22;41176;44.032;20.900;2024-03-23T07:53:10;15.30;65.40
50544;DHT22;41176;44.032;20.900;2024-03-23T07:55:35;15.40;63.90
50544;DHT22;41176;44.032;20.900;2024-03-23T07:58:01;15.70;63.90
50544;DHT22;41176;44.032;20.900;2024-03-23T08:00:27;15.80;60.30
50544;DHT22;41176;44.032;20.900;2024-03-23T08:02:53;15.80;60.50
50544;DHT22;41176;44.032;20.900;2024-03-23T08:05:18;15.80;61.40
50544;DHT22;41176;44.032;20.900;2024-03-23T08:07:44;16.00;62.10
50544;DHT22;41176;44.032;20.900;2024-03-23T08:10:10;16.10;61.00
50544;DHT22;41176;44.032;20.900;2024-03-23T08:12:38;16.30;60.10
50544;DHT22;41176;44.032;20.900;2024-03-23T08:15:04;16.30;59.40
50544;DHT22;41176;44.032;20.900;2024-03-23T08:17:30;16.20;59.60
50544;DHT22;41176;44.032;20.900;2024-03-23T08:19:55;16.30;61.00
50544;DHT22;41176;44.032;20.900;2024-03-23T08:22:22;16.30;60.00
50544;DHT22;41176;44.032;20.900;2024-03-23T08:24:47;16.30;60.00
50544;DHT22;41176;44.032;20.900;2024-03-23T08:27:13;16.50;60.00
50544;DHT22;41176;44.032;20.900;2024-03-23T08:29:39;16.70;60.60
50544;DHT22;41176;44.032;20.900;2024-03-23T08:32:05;16.90;59.50
50544;DHT22;41176;44.032;20.900;2024-03-23T08:34:30;17.00;58.50
50544;DHT22;41176;44.032;20.900;2024-03-23T08:36:56;17.10;59.40
50544;DHT22;41176;44.032;20.900;2024-03-23T08:39:22;17.20;58.50
50544;DHT22;41176;44.032;20.900;2024-03-23T08:41:48;17.50;58.80
50544;DHT22;41176;44.032;20.900;2024-03-23T08:44:13;17.50;58.50
50544;DHT22;41176;44.032;20.900;2024-03-23T08:46:39;17.70;58.30
50544;DHT22;41176;44.032;20.900;2024-03-23T08:49:05;17.80;58.00
50544;DHT22;41176;44.032;20.900;2024-03-23T08:51:30;17.90;58.10
50544;DHT22;41176;44.032;20.900;2024-03-23T08:53:56;18.10;57.80
50544;DHT22;41176;44.032;20.900;2024-03-23T08:56:22;18.20;57.80
50544;DHT22;41176;44.032;20.900;2024-03-23T08:58:48;18.40;58.50
50544;DHT22;41176;44.032;20.900;2024-03-23T09:01:14;18.60;57.00
50544;DHT22;41176;44.032;20.900;2024-03-23T09:03:40;18.70;56.90
50544;DHT22;41176;44.032;20.900;2024-03-23T09:06:14;18.90;56.80
50544;DHT22;41176;44.032;20.900;2024-03-23T09:08:40;19.20;56.60
50544;DHT22;41176;44.032;20.900;2024-03-23T09:11:08;19.20;55.20
50544;DHT22;41176;44.032;20.900;2024-03-23T09:13:35;19.30;55.10
50544;DHT22;41176;44.032;20.900;2024-03-23T09:16:01;19.30;55.00
50544;DHT22;41176;44.032;20.900;2024-03-23T09:18:27;19.40;53.90
50544;DHT22;41176;44.032;20.900;2024-03-23T09:20:53;19.50;55.50
50544;DHT22;41176;44.032;20.900;2024-03-23T09:23:21;19.50;53.70
50544;DHT22;41176;44.032;20.900;2024-03-23T09:25:46;19.50;53.00
50544;DHT22;41176;44.032;20.900;2024-03-23T09:28:12;19.60;52.60
50544;DHT22;41176;44.032;20.900;2024-03-23T09:30:38;19.80;52.00
50544;DHT22;41176;44.032;20.900;2024-03-23T09:33:08;19.80;50.50
50544;DHT22;41176;44.032;20.900;2024-03-23T09:35:38;19.90;51.80
50544;DHT22;41176;44.032;20.900;2024-03-23T09:38:04;19.90;51.20
50544;DHT22;41176;44.032;20.900;2024-03-23T09:40:30;19.90;50.70
50544;DHT22;41176;44.032;20.900;2024-03-23T09:42:55;19.90;51.20
50544;DHT22;41176;44.032;20.900;2024-03-23T09:45:23;20.10;50.00
50544;DHT22;41176;44.032;20.900;2024-03-23T09:47:52;19.90;50.20
50544;DHT22;41176;44.032;20.900;2024-03-23T09:50:18;20.00;51.50
50544;DHT22;41176;44.032;20.900;2024-03-23T09:52:46;20.20;50.00
50544;DHT22;41176;44.032;20.900;2024-03-23T09:55:12;20.10;50.60
50544;DHT22;41176;44.032;20.900;2024-03-23T09:57:40;20.10;52.10
50544;DHT22;41176;44.032;20.900;2024-03-23T10:00:06;20.10;49.60
50544;DHT22;41176;44.032;20.900;2024-03-23T10:02:36;20.10;50.70
50544;DHT22;41176;44.032;20.900;2024-03-23T10:05:02;20.00;50.00
50544;DHT22;41176;44.032;20.900;2024-03-23T10:07:28;20.00;49.80
50544;DHT22;41176;44.032;20.900;2024-03-23T10:09:57;20.00;50.10
50544;DHT22;41176;44.032;20.900;2024-03-23T10:12:23;20.10;49.80
50544;DHT22;41176;44.032;20.900;2024-03-23T10:14:50;20.20;49.60
50544;DHT22;41176;44.032;20.900;2024-03-23T10:17:20;20.10;51.10
50544;DHT22;41176;44.032;20.900;2024-03-23T10:19:50;20.10;49.90
50544;DHT22;41176;44.032;20.900;2024-03-23T10:22:19;20.20;50.30
50544;DHT22;41176;44.032;20.900;2024-03-23T10:24:46;20.20;50.10
50544;DHT22;41176;44.032;20.900;2024-03-23T10:27:19;20.00;49.50
50544;DHT22;41176;44.032;20.900;2024-03-23T10:29:49;20.00;49.60
50544;DHT22;41176;44.032;20.900;2024-03-23T10:32:17;20.10;49.50
50544;DHT22;41176;44.032;20.900;2024-03-23T10:34:43;20.10;50.40
50544;DHT22;41176;44.032;20.900;2024-03-23T10:37:09;20.20;50.50
50544;DHT22;41176;44.032;20.900;2024-03-23T10:39:37;20.30;51.80
50544;DHT22;41176;44.032;20.900;2024-03-23T10:42:04;20.60;50.30
50544;DHT22;41176;44.032;20.900;2024-03-23T10:44:31;20.70;49.30
50544;DHT22;41176;44.032;20.900;2024-03-23T10:46:58;20.80;50.20
50544;DHT22;41176;44.032;20.900;2024-03-23T10:49:29;20.80;50.60
50544;DHT22;41176;44.032;20.900;2024-03-23T10:52:04;20.80;48.80
50544;DHT22;41176;44.032;20.900;2024-03-23T10:54:32;20.90;50.00
50544;DHT22;41176;44.032;20.900;2024-03-23T10:57:14;20.90;49.90
50544;DHT22;41176;44.032;20.900;2024-03-23T10:59:40;21.10;49.90
50544;DHT22;41176;44.032;20.900;2024-03-23T11:02:06;21.20;50.00
50544;DHT22;41176;44.032;20.900;2024-03-23T11:04:38;21.20;49.20
50544;DHT22;41176;44.032;20.900;2024-03-23T11:09:51;21.40;50.60
50544;DHT22;41176;44.032;20.900;2024-03-23T11:14:52;21.40;50.40
50544;DHT22;41176;44.032;20.900;2024-03-23T11:17:19;21.60;49.70
50544;DHT22;41176;44.032;20.900;2024-03-23T11:19:56;21.70;48.80
50544;DHT22;41176;44.032;20.900;2024-03-23T11:22:42;21.70;49.60
50544;DHT22;41176;44.032;20.900;2024-03-23T11:25:20;21.70;49.50
50544;DHT22;41176;44.032;20.900;2024-03-23T11:27:47;21.70;49.10
50544;DHT22;41176;44.032;20.900;2024-03-23T11:32:39;21.90;47.80
50544;DHT22;41176;44.032;20.900;2024-03-23T11:35:06;21.90;48.00
50544;DHT22;41176;44.032;20.900;2024-03-23T11:37:32;21.80;47.10
50544;DHT22;41176;44.032;20.900;2024-03-23T11:39:57;21.70;49.60
50544;DHT22;41176;44.032;20.900;2024-03-23T11:42:23;21.70;48.30
50544;DHT22;41176;44.032;20.900;2024-03-23T11:44:49;21.90;47.60
50544;DHT22;41176;44.032;20.900;2024-03-23T11:47:14;22.10;48.30
50544;DHT22;41176;44.032;20.900;2024-03-23T11:49:40;22.00;46.90
50544;DHT22;41176;44.032;20.900;2024-03-23T11:52:07;22.00;47.60
50544;DHT22;41176;44.032;20.900;2024-03-23T11:54:33;22.00;47.30
50544;DHT22;41176;44.032;20.900;2024-03-23T11:57:00;22.10;47.20
50544;DHT22;41176;44.032;20.900;2024-03-23T11:59:39;22.00;46.30
50544;DHT22;41176;44.032;20.900;2024-03-23T12:02:09;22.30;46.60
50544;DHT22;41176;44.032;20.900;2024-03-23T12:04:36;22.30;46.70
50544;DHT22;41176;44.032;20.900;2024-03-23T12:07:16;22.30;46.40
50544;DHT22;41176;44.032;20.900;2024-03-23T12:09:45;22.20;46.20
50544;DHT22;41176;44.032;20.900;2024-03-23T12:12:14;22.30;47.10
50544;DHT22;41176;44.032;20.900;2024-03-23T12:14:44;22.40;46.10
50544;DHT22;41176;44.032;20.900;2024-03-23T12:17:14;22.30;45.30
50544;DHT22;41176;44.032;20.900;2024-03-23T12:19:41;22.40;47.00
50544;DHT22;41176;44.032;20.900;2024-03-23T12:22:08;22.70;46.90
50544;DHT22;41176;44.032;20.900;2024-03-23T12:24:34;22.90;46.00
50544;DHT22;41176;44.032;20.900;2024-03-23T12:27:04;22.90;46.10
50544;DHT22;41176;44.032;20.900;2024-03-23T12:29:33;23.00;45.60
50544;DHT22;41176;44.032;20.900;2024-03-23T12:32:00;23.10;45.70
50544;DHT22;41176;44.032;20.900;2024-03-23T12:34:27;23.00;44.80
50544;DHT22;41176;44.032;20.900;2024-03-23T12:36:53;22.90;44.90
50544;DHT22;41176;44.032;20.900;2024-03-23T12:39:19;23.00;45.10
50544;DHT22;41176;44.032;20.900;2024-03-23T12:41:47;23.00;44.80
50544;DHT22;41176;44.032;20.900;2024-03-23T12:44:13;23.10;44.40
50544;DHT22;41176;44.032;20.900;2024-03-23T12:46:39;22.80;45.10
50544;DHT22;41176;44.032;20.900;2024-03-23T12:49:05;23.00;45.00
50544;DHT22;41176;44.032;20.900;2024-03-23T12:51:32;23.20;45.40
50544;DHT22;41176;44.032;20.900;2024-03-23T12:53:58;23.30;44.90
50544;DHT22;41176;44.032;20.900;2024-03-23T12:56:23;23.50;44.70
50544;DHT22;41176;44.032;20.900;2024-03-23T12:58:49;23.60;44.10
50544;DHT22;41176;44.032;20.900;2024-03-23T13:01:17;23.50;44.70
50544;DHT22;41176;44.032;20.900;2024-03-23T13:03:43;23.70;44.70
50544;DHT22;41176;44.032;20.900;2024-03-23T13:06:11;23.70;44.40
50544;DHT22;41176;44.032;20.900;2024-03-23T13:08:37;23.70;44.20
50544;DHT22;41176;44.032;20.900;2024-03-23T13:11:03;23.70;43.00
50544;DHT22;41176;44.032;20.900;2024-03-23T13:13:28;23.60;43.70
50544;DHT22;41176;44.032;20.900;2024-03-23T13:15:54;23.60;45.10
50544;DHT22;41176;44.032;20.900;2024-03-23T13:18:20;23.70;43.20
50544;DHT22;41176;44.032;20.900;2024-03-23T13:20:46;23.80;44.10
50544;DHT22;41176;44.032;20.900;2024-03-23T13:23:13;23.70;44.00
50544;DHT22;41176;44.032;20.900;2024-03-23T13:25:38;23.70;44.00
50544;DHT22;41176;44.032;20.900;2024-03-23T13:28:04;23.90;44.50
50544;DHT22;41176;44.032;20.900;2024-03-23T13:30:30;23.90;43.70
50544;DHT22;41176;44.032;20.900;2024-03-23T13:32:56;23.90;43.80
50544;DHT22;41176;44.032;20.900;2024-03-23T13:35:22;23.90;43.80
50544;DHT22;41176;44.032;20.900;2024-03-23T13:37:48;24.10;44.00
50544;DHT22;41176;44.032;20.900;2024-03-23T13:40:14;24.30;43.50
50544;DHT22;41176;44.032;20.900;2024-03-23T13:42:40;24.30;42.50
50544;DHT22;41176;44.032;20.900;2024-03-23T13:45:06;24.50;43.10
50544;DHT22;41176;44.032;20.900;2024-03-23T13:47:31;24.90;43.00
50544;DHT22;41176;44.032;20.900;2024-03-23T13:49:58;25.70;42.80
50544;DHT22;41176;44.032;20.900;2024-03-23T13:52:23;26.80;41.40
50544;DHT22;41176;44.032;20.900;2024-03-23T13:54:51;27.70;41.10
50544;DHT22;41176;44.032;20.900;2024-03-23T13:57:17;27.80;39.80
50544;DHT22;41176;44.032;20.900;2024-03-23T13:59:47;28.00;40.00
50544;DHT22;41176;44.032;20.900;2024-03-23T14:02:13;28.80;39.20
50544;DHT22;41176;44.032;20.900;2024-03-23T14:04:40;29.90;38.90
50544;DHT22;41176;44.032;20.900;2024-03-23T14:07:06;30.00;37.90
50544;DHT22;41176;44.032;20.900;2024-03-23T14:09:33;30.50;38.40
50544;DHT22;41176;44.032;20.900;2024-03-23T14:12:00;31.40;37.70
50544;DHT22;41176;44.032;20.900;2024-03-23T14:14:26;32.30;37.00
50544;DHT22;41176;44.032;20.900;2024-03-23T14:16:52;33.10;36.50
50544;DHT22;41176;44.032;20.900;2024-03-23T14:19:18;33.50;35.80
50544;DHT22;41176;44.032;20.900;2024-03-23T14:21:44;33.20;35.50
50544;DHT22;41176;44.032;20.900;2024-03-23T14:24:10;32.80;35.60
50544;DHT22;41176;44.032;20.900;2024-03-23T14:26:37;31.90;35.80
50544;DHT22;41176;44.032;20.900;2024-03-23T14:29:02;31.10;36.20
50544;DHT22;41176;44.032;20.900;2024-03-23T14:31:29;29.50;37.30
50544;DHT22;41176;44.032;20.900;2024-03-23T14:33:54;28.20;37.90
50544;DHT22;41176;44.032;20.900;2024-03-23T14:36:20;27.30;39.00
50544;DHT22;41176;44.032;20.900;2024-03-23T14:38:49;26.70;39.40
50544;DHT22;41176;44.032;20.900;2024-03-23T14:41:15;26.60;39.60
50544;DHT22;41176;44.032;20.900;2024-03-23T14:43:41;26.70;39.60
50544;DHT22;41176;44.032;20.900;2024-03-23T14:46:10;26.70;39.50
50544;DHT22;41176;44.032;20.900;2024-03-23T14:48:37;27.40;38.60
50544;DHT22;41176;44.032;20.900;2024-03-23T14:51:03;28.40;38.60
50544;DHT22;41176;44.032;20.900;2024-03-23T14:53:36;28.80;38.40
50544;DHT22;41176;44.032;20.900;2024-03-23T14:56:09;28.30;38.00
50544;DHT22;41176;44.032;20.900;2024-03-23T14:58:38;27.40;38.90
50544;DHT22;41176;44.032;20.900;2024-03-23T15:01:06;26.80;39.20
50544;DHT22;41176;44.032;20.900;2024-03-23T15:03:38;26.50;39.90
50544;DHT22;41176;44.032;20.900;2024-03-23T15:06:08;26.30;39.70
50544;DHT22;41176;44.032;20.900;2024-03-23T15:08:37;26.30;39.60
50544;DHT22;41176;44.032;20.900;2024-03-23T15:11:04;26.00;39.80
50544;DHT22;41176;44.032;20.900;2024-03-23T15:13:33;25.50;40.30
50544;DHT22;41176;44.032;20.900;2024-03-23T15:16:00;25.20;40.90
50544;DHT22;41176;44.032;20.900;2024-03-23T15:18:25;25.10;40.50
50544;DHT22;41176;44.032;20.900;2024-03-23T15:20:58;25.20;41.20
50544;DHT22;41176;44.032;20.900;2024-03-23T15:23:37;25.30;40.60
50544;DHT22;41176;44.032;20.900;2024-03-23T15:26:03;25.00;40.90
50544;DHT22;41176;44.032;20.900;2024-03-23T15:28:30;24.70;41.40
50544;DHT22;41176;44.032;20.900;2024-03-23T15:31:14;24.50;41.80
50544;DHT22;41176;44.032;20.900;2024-03-23T15:33:39;24.30;41.60
50544;DHT22;41176;44.032;20.900;2024-03-23T15:36:06;24.10;42.10
50544;DHT22;41176;44.032;20.900;2024-03-23T15:38:32;24.00;42.30
50544;DHT22;41176;44.032;20.900;2024-03-23T15:40:58;23.80;43.10
50544;DHT22;41176;44.032;20.900;2024-03-23T15:43:24;23.60;42.90
50544;DHT22;41176;44.032;20.900;2024-03-23T15:46:00;23.40;43.20
50544;DHT22;41176;44.032;20.900;2024-03-23T15:48:30;23.20;42.80
50544;DHT22;41176;44.032;20.900;2024-03-23T15:50:58;23.20;43.50
50544;DHT22;41176;44.032;20.900;2024-03-23T15:53:25;23.00;43.30
50544;DHT22;41176;44.032;20.900;2024-03-23T15:55:54;23.00;43.40
50544;DHT22;41176;44.032;20.900;2024-03-23T15:58:21;22.90;43.80
50544;DHT22;41176;44.032;20.900;2024-03-23T16:03:22;22.60;44.30
50544;DHT22;41176;44.032;20.900;2024-03-23T16:05:52;22.70;44.20
50544;DHT22;41176;44.032;20.900;2024-03-23T16:08:17;22.50;44.10
50544;DHT22;41176;44.032;20.900;2024-03-23T16:10:43;22.50;44.30
50544;DHT22;41176;44.032;20.900;2024-03-23T16:13:09;22.40;44.60
50544;DHT22;41176;44.032;20.900;2024-03-23T16:15:35;22.30;44.50
50544;DHT22;41176;44.032;20.900;2024-03-23T16:18:01;22.20;45.80
50544;DHT22;41176;44.032;20.900;2024-03-23T16:20:26;22.10;44.90
50544;DHT22;41176;44.032;20.900;2024-03-23T16:22:52;22.00;44.80